sensor_id;sensor_type;location;lat;lon;timestamp;pressure;altitude;pressure_sealevel;temperature;humidity
22333;BME280;11334;36.986;-121.936;2023-07-02T00:01:51;100818.69;;;29.52;41.57
22333;BME280;11334;36.986;-121.936;2023-07-02T00:04:17;100806.63;;;29.57;41.17
22333;BME280;11334;36.986;-121.936;2023-07-02T00:06:48;100814.38;;;29.31;41.83
22333;BME280;11334;36.986;-121.936;2023-07-02T00:09:15;100806.13;;;29.65;41.46
22333;BME280;11334;36.986;-121.936;2023-07-02T00:11:44;100811.53;;;29.80;40.85
22333;BME280;11334;36.986;-121.936;2023-07-02T00:14:12;100806.31;;;29.79;41.41
22333;BME280;11334;36.986;-121.936;2023-07-02T00:16:43;100803.28;;;29.90;40.45
22333;BME280;11334;36.986;-121.936;2023-07-02T00:19:11;100801.25;;;30.10;40.53
22333;BME280;11334;36.986;-121.936;2023-07-02T00:21:38;100805.38;;;30.08;39.95
22333;BME280;11334;36.986;-121.936;2023-07-02T00:24:06;100794.13;;;30.09;40.22
22333;BME280;11334;36.986;-121.936;2023-07-02T00:26:32;100793.31;;;30.09;40.43
22333;BME280;11334;36.986;-121.936;2023-07-02T00:28:58;100787.53;;;30.25;39.63
22333;BME280;11334;36.986;-121.936;2023-07-02T00:31:25;100788.16;;;30.50;39.61
22333;BME280;11334;36.986;-121.936;2023-07-02T00:33:51;100780.22;;;30.49;39.55
22333;BME280;11334;36.986;-121.936;2023-07-02T00:36:17;100783.13;;;30.67;39.00
22333;BME280;11334;36.986;-121.936;2023-07-02T00:38:48;100787.47;;;30.68;38.52
22333;BME280;11334;36.986;-121.936;2023-07-02T00:41:15;100790.75;;;30.75;39.45
22333;BME280;11334;36.986;-121.936;2023-07-02T00:43:42;100784.88;;;30.86;38.88
22333;BME280;11334;36.986;-121.936;2023-07-02T00:46:14;100773.03;;;30.95;38.25
22333;BME280;11334;36.986;-121.936;2023-07-02T00:48:55;100771.50;;;30.85;38.63
22333;BME280;11334;36.986;-121.936;2023-07-02T00:51:26;100773.13;;;30.85;38.78
22333;BME280;11334;36.986;-121.936;2023-07-02T00:53:54;100764.63;;;30.87;38.51
22333;BME280;11334;36.986;-121.936;2023-07-02T00:56:22;100772.22;;;30.95;38.91
22333;BME280;11334;36.986;-121.936;2023-07-02T00:58:49;100771.00;;;30.78;38.67
22333;BME280;11334;36.986;-121.936;2023-07-02T01:01:21;100773.53;;;30.69;39.34
22333;BME280;11334;36.986;-121.936;2023-07-02T01:04:05;100778.63;;;30.81;38.84
22333;BME280;11334;36.986;-121.936;2023-07-02T01:06:34;100759.56;;;30.66;39.35
22333;BME280;11334;36.986;-121.936;2023-07-02T01:09:03;100772.28;;;30.52;39.72
22333;BME280;11334;36.986;-121.936;2023-07-02T01:11:43;100775.78;;;30.24;39.74
22333;BME280;11334;36.986;-121.936;2023-07-02T01:14:25;100766.38;;;30.35;40.02
22333;BME280;11334;36.986;-121.936;2023-07-02T01:16:53;100768.81;;;30.37;40.04
22333;BME280;11334;36.986;-121.936;2023-07-02T01:19:48;100769.50;;;30.19;40.14
22333;BME280;11334;36.986;-121.936;2023-07-02T01:22:26;100773.97;;;30.00;40.82
22333;BME280;11334;36.986;-121.936;2023-07-02T01:24:53;100771.03;;;29.82;41.12
22333;BME280;11334;36.986;-121.936;2023-07-02T01:27:20;100762.69;;;29.49;41.10
22333;BME280;11334;36.986;-121.936;2023-07-02T01:29:47;100767.41;;;29.24;42.65
22333;BME280;11334;36.986;-121.936;2023-07-02T01:32:16;100768.53;;;28.93;42.64
22333;BME280;11334;36.986;-121.936;2023-07-02T01:34:43;100766.63;;;28.79;42.92
22333;BME280;11334;36.986;-121.936;2023-07-02T01:37:16;100767.44;;;28.85;43.19
22333;BME280;11334;36.986;-121.936;2023-07-02T01:39:45;100770.97;;;28.70;43.29
22333;BME280;11334;36.986;-121.936;2023-07-02T01:42:15;100764.16;;;28.53;43.26
22333;BME280;11334;36.986;-121.936;2023-07-02T01:44:43;100765.22;;;28.32;44.44
22333;BME280;11334;36.986;-121.936;2023-07-02T01:47:09;100760.00;;;28.31;44.27
22333;BME280;11334;36.986;-121.936;2023-07-02T01:49:36;100759.41;;;28.04;45.02
22333;BME280;11334;36.986;-121.936;2023-07-02T01:52:04;100757.97;;;27.87;45.42
22333;BME280;11334;36.986;-121.936;2023-07-02T01:54:32;100751.72;;;27.92;45.50
22333;BME280;11334;36.986;-121.936;2023-07-02T01:56:58;100740.88;;;27.96;44.99
22333;BME280;11334;36.986;-121.936;2023-07-02T01:59:25;100745.44;;;27.81;45.42
22333;BME280;11334;36.986;-121.936;2023-07-02T02:01:52;100749.19;;;27.61;46.07
22333;BME280;11334;36.986;-121.936;2023-07-02T02:04:18;100756.03;;;27.68;46.09
22333;BME280;11334;36.986;-121.936;2023-07-02T02:06:45;100743.69;;;27.51;46.34
22333;BME280;11334;36.986;-121.936;2023-07-02T02:09:11;100745.09;;;27.58;46.38
22333;BME280;11334;36.986;-121.936;2023-07-02T02:11:49;100748.31;;;27.50;46.78
22333;BME280;11334;36.986;-121.936;2023-07-02T02:14:35;100749.44;;;27.13;47.42
22333;BME280;11334;36.986;-121.936;2023-07-02T02:17:02;100757.97;;;27.27;47.20
22333;BME280;11334;36.986;-121.936;2023-07-02T02:19:28;100764.19;;;27.22;47.34
22333;BME280;11334;36.986;-121.936;2023-07-02T02:21:54;100753.66;;;26.95;47.81
22333;BME280;11334;36.986;-121.936;2023-07-02T02:24:20;100757.41;;;26.84;48.23
22333;BME280;11334;36.986;-121.936;2023-07-02T02:26:46;100760.44;;;26.61;49.16
22333;BME280;11334;36.986;-121.936;2023-07-02T02:29:13;100771.31;;;26.30;49.83
22333;BME280;11334;36.986;-121.936;2023-07-02T02:31:39;100765.97;;;26.14;50.49
22333;BME280;11334;36.986;-121.936;2023-07-02T02:34:05;100757.16;;;25.81;51.58
22333;BME280;11334;36.986;-121.936;2023-07-02T02:36:31;100763.84;;;25.31;53.80
22333;BME280;11334;36.986;-121.936;2023-07-02T02:38:58;100753.59;;;25.17;53.54
22333;BME280;11334;36.986;-121.936;2023-07-02T02:41:24;100768.53;;;24.98;54.62
22333;BME280;11334;36.986;-121.936;2023-07-02T02:43:50;100764.00;;;24.71;56.25
22333;BME280;11334;36.986;-121.936;2023-07-02T02:46:22;100756.31;;;24.36;57.06
22333;BME280;11334;36.986;-121.936;2023-07-02T02:48:50;100760.84;;;24.30;57.77
22333;BME280;11334;36.986;-121.936;2023-07-02T02:51:17;100765.81;;;23.94;59.36
22333;BME280;11334;36.986;-121.936;2023-07-02T02:53:43;100764.22;;;23.82;60.01
22333;BME280;11334;36.986;-121.936;2023-07-02T02:56:09;100759.72;;;23.60;61.56
22333;BME280;11334;36.986;-121.936;2023-07-02T02:58:36;100765.59;;;23.46;61.58
22333;BME280;11334;36.986;-121.936;2023-07-02T03:01:02;100755.97;;;23.38;62.15
22333;BME280;11334;36.986;-121.936;2023-07-02T03:03:34;100767.16;;;23.19;63.34
22333;BME280;11334;36.986;-121.936;2023-07-02T03:06:05;100767.63;;;23.05;64.00
22333;BME280;11334;36.986;-121.936;2023-07-02T03:08:31;100771.78;;;22.96;64.27
22333;BME280;11334;36.986;-121.936;2023-07-02T03:10:57;100776.78;;;22.81;65.02
22333;BME280;11334;36.986;-121.936;2023-07-02T03:13:24;100780.19;;;22.77;65.48
22333;BME280;11334;36.986;-121.936;2023-07-02T03:15:50;100778.66;;;22.69;65.45
22333;BME280;11334;36.986;-121.936;2023-07-02T03:18:16;100778.19;;;22.61;66.10
22333;BME280;11334;36.986;-121.936;2023-07-02T03:20:42;100774.25;;;22.46;66.75
22333;BME280;11334;36.986;-121.936;2023-07-02T03:23:08;100778.59;;;22.35;67.45
22333;BME280;11334;36.986;-121.936;2023-07-02T03:25:35;100783.03;;;22.30;67.66
22333;BME280;11334;36.986;-121.936;2023-07-02T03:28:04;100785.34;;;22.15;68.33
22333;BME280;11334;36.986;-121.936;2023-07-02T03:30:30;100785.50;;;22.02;69.40
22333;BME280;11334;36.986;-121.936;2023-07-02T03:32:57;100775.91;;;21.88;69.88
22333;BME280;11334;36.986;-121.936;2023-07-02T03:35:24;100781.50;;;21.76;70.48
22333;BME280;11334;36.986;-121.936;2023-07-02T03:37:50;100786.00;;;21.64;71.05
22333;BME280;11334;36.986;-121.936;2023-07-02T03:40:16;100779.66;;;21.58;71.46
22333;BME280;11334;36.986;-121.936;2023-07-02T03:42:43;100771.63;;;21.52;71.67
22333;BME280;11334;36.986;-121.936;2023-07-02T03:45:09;100768.88;;;21.41;72.55
22333;BME280;11334;36.986;-121.936;2023-07-02T03:47:36;100780.38;;;21.30;73.07
22333;BME280;11334;36.986;-121.936;2023-07-02T03:50:02;100785.84;;;21.23;73.48
22333;BME280;11334;36.986;-121.936;2023-07-02T03:52:28;100783.00;;;21.19;74.06
22333;BME280;11334;36.986;-121.936;2023-07-02T03:54:54;100771.09;;;21.08;74.13
22333;BME280;11334;36.986;-121.936;2023-07-02T03:57:21;100784.16;;;21.05;74.46
22333;BME280;11334;36.986;-121.936;2023-07-02T03:59:47;100779.88;;;20.97;74.98
22333;BME280;11334;36.986;-121.936;2023-07-02T04:02:13;100778.91;;;20.92;75.49
22333;BME280;11334;36.986;-121.936;2023-07-02T04:04:39;100784.63;;;20.78;76.15
22333;BME280;11334;36.986;-121.936;2023-07-02T04:07:05;100787.16;;;20.73;76.66
22333;BME280;11334;36.986;-121.936;2023-07-02T04:09:32;100794.69;;;20.64;76.79
22333;BME280;11334;36.986;-121.936;2023-07-02T04:12:00;100787.31;;;20.54;77.47
22333;BME280;11334;36.986;-121.936;2023-07-02T04:14:27;100785.88;;;20.51;77.55
22333;BME280;11334;36.986;-121.936;2023-07-02T04:16:53;100790.88;;;20.48;77.79
22333;BME280;11334;36.986;-121.936;2023-07-02T04:19:19;100792.19;;;20.39;78.54
22333;BME280;11334;36.986;-121.936;2023-07-02T04:21:45;100794.84;;;20.15;79.93
22333;BME280;11334;36.986;-121.936;2023-07-02T04:24:12;100789.41;;;20.21;79.67
22333;BME280;11334;36.986;-121.936;2023-07-02T04:26:38;100796.88;;;20.19;79.72
22333;BME280;11334;36.986;-121.936;2023-07-02T04:29:09;100804.06;;;20.25;79.84
22333;BME280;11334;36.986;-121.936;2023-07-02T04:31:36;100803.09;;;20.20;80.30
22333;BME280;11334;36.986;-121.936;2023-07-02T04:34:03;100796.13;;;20.06;80.97
22333;BME280;11334;36.986;-121.936;2023-07-02T04:36:31;100801.31;;;20.07;81.22
22333;BME280;11334;36.986;-121.936;2023-07-02T04:38:58;100794.88;;;20.08;81.06
22333;BME280;11334;36.986;-121.936;2023-07-02T04:41:24;100805.44;;;20.10;81.44
22333;BME280;11334;36.986;-121.936;2023-07-02T04:43:50;100809.81;;;20.04;81.70
22333;BME280;11334;36.986;-121.936;2023-07-02T04:46:19;100804.44;;;19.98;81.85
22333;BME280;11334;36.986;-121.936;2023-07-02T04:48:45;100807.38;;;19.96;82.61
22333;BME280;11334;36.986;-121.936;2023-07-02T04:51:12;100812.31;;;19.99;82.46
22333;BME280;11334;36.986;-121.936;2023-07-02T04:53:38;100810.25;;;19.95;82.77
22333;BME280;11334;36.986;-121.936;2023-07-02T04:56:04;100809.44;;;19.95;82.91
22333;BME280;11334;36.986;-121.936;2023-07-02T04:58:30;100819.41;;;19.88;83.24
22333;BME280;11334;36.986;-121.936;2023-07-02T05:00:57;100813.22;;;19.81;84.18
22333;BME280;11334;36.986;-121.936;2023-07-02T05:03:23;100826.69;;;19.81;83.60
22333;BME280;11334;36.986;-121.936;2023-07-02T05:05:49;100827.75;;;19.67;84.68
22333;BME280;11334;36.986;-121.936;2023-07-02T05:08:15;100834.16;;;19.66;84.84
22333;BME280;11334;36.986;-121.936;2023-07-02T05:10:41;100836.88;;;19.60;85.65
22333;BME280;11334;36.986;-121.936;2023-07-02T05:13:08;100842.47;;;19.52;86.05
22333;BME280;11334;36.986;-121.936;2023-07-02T05:15:34;100831.94;;;19.44;86.40
22333;BME280;11334;36.986;-121.936;2023-07-02T05:18:00;100829.31;;;19.25;87.62
22333;BME280;11334;36.986;-121.936;2023-07-02T05:20:26;100840.25;;;19.30;88.01
22333;BME280;11334;36.986;-121.936;2023-07-02T05:22:52;100847.06;;;19.38;87.19
22333;BME280;11334;36.986;-121.936;2023-07-02T05:25:19;100845.63;;;19.42;87.32
22333;BME280;11334;36.986;-121.936;2023-07-02T05:27:45;100844.81;;;19.29;87.64
22333;BME280;11334;36.986;-121.936;2023-07-02T05:30:11;100845.84;;;19.28;88.03
22333;BME280;11334;36.986;-121.936;2023-07-02T05:32:38;100844.59;;;19.31;87.44
22333;BME280;11334;36.986;-121.936;2023-07-02T05:35:05;100833.84;;;19.24;86.88
22333;BME280;11334;36.986;-121.936;2023-07-02T05:37:31;100829.72;;;19.22;86.49
22333;BME280;11334;36.986;-121.936;2023-07-02T05:39:57;100825.41;;;19.14;86.47
22333;BME280;11334;36.986;-121.936;2023-07-02T05:42:23;100821.03;;;19.20;85.90
22333;BME280;11334;36.986;-121.936;2023-07-02T05:44:50;100814.47;;;19.09;85.90
22333;BME280;11334;36.986;-121.936;2023-07-02T05:47:16;100815.28;;;19.10;85.98
22333;BME280;11334;36.986;-121.936;2023-07-02T05:49:42;100810.53;;;18.99;86.41
22333;BME280;11334;36.986;-121.936;2023-07-02T05:52:09;100813.25;;;19.05;86.30
22333;BME280;11334;36.986;-121.936;2023-07-02T05:54:39;100809.72;;;19.11;86.18
22333;BME280;11334;36.986;-121.936;2023-07-02T05:57:06;100807.88;;;18.99;86.75
22333;BME280;11334;36.986;-121.936;2023-07-02T05:59:32;100811.38;;;18.80;87.87
22333;BME280;11334;36.986;-121.936;2023-07-02T06:01:58;100825.59;;;18.87;88.00
22333;BME280;11334;36.986;-121.936;2023-07-02T06:04:24;100802.06;;;18.89;87.34
22333;BME280;11334;36.986;-121.936;2023-07-02T06:06:50;100795.66;;;18.84;88.00
22333;BME280;11334;36.986;-121.936;2023-07-02T06:09:17;100814.88;;;18.74;88.39
22333;BME280;11334;36.986;-121.936;2023-07-02T06:11:43;100822.72;;;18.76;88.46
22333;BME280;11334;36.986;-121.936;2023-07-02T06:14:09;100815.69;;;18.81;87.99
22333;BME280;11334;36.986;-121.936;2023-07-02T06:16:35;100815.09;;;18.86;87.76
22333;BME280;11334;36.986;-121.936;2023-07-02T06:19:01;100805.34;;;18.85;87.56
22333;BME280;11334;36.986;-121.936;2023-07-02T06:21:28;100793.59;;;18.60;88.00
22333;BME280;11334;36.986;-121.936;2023-07-02T06:23:56;100795.47;;;18.53;88.38
22333;BME280;11334;36.986;-121.936;2023-07-02T06:26:24;100796.50;;;18.59;87.94
22333;BME280;11334;36.986;-121.936;2023-07-02T06:28:50;100796.69;;;18.57;87.21
22333;BME280;11334;36.986;-121.936;2023-07-02T06:31:17;100801.47;;;18.49;87.76
22333;BME280;11334;36.986;-121.936;2023-07-02T06:33:43;100796.69;;;18.38;88.23
22333;BME280;11334;36.986;-121.936;2023-07-02T06:36:10;100796.91;;;18.43;87.40
22333;BME280;11334;36.986;-121.936;2023-07-02T06:38:36;100801.03;;;18.39;87.66
22333;BME280;11334;36.986;-121.936;2023-07-02T06:41:03;100779.13;;;18.35;86.71
22333;BME280;11334;36.986;-121.936;2023-07-02T06:43:30;100789.28;;;18.34;87.44
22333;BME280;11334;36.986;-121.936;2023-07-02T06:45:56;100787.63;;;18.39;86.76
22333;BME280;11334;36.986;-121.936;2023-07-02T06:48:22;100789.28;;;18.34;86.85
22333;BME280;11334;36.986;-121.936;2023-07-02T06:50:48;100791.13;;;18.27;87.11
22333;BME280;11334;36.986;-121.936;2023-07-02T06:53:14;100796.69;;;18.32;87.51
22333;BME280;11334;36.986;-121.936;2023-07-02T06:55:41;100785.31;;;18.23;87.53
22333;BME280;11334;36.986;-121.936;2023-07-02T06:58:07;100781.41;;;18.19;87.82
22333;BME280;11334;36.986;-121.936;2023-07-02T07:00:34;100774.19;;;18.20;87.82
22333;BME280;11334;36.986;-121.936;2023-07-02T07:03:03;100784.88;;;18.13;88.39
22333;BME280;11334;36.986;-121.936;2023-07-02T07:05:31;100772.94;;;18.09;88.31
22333;BME280;11334;36.986;-121.936;2023-07-02T07:07:58;100777.84;;;18.06;88.50
22333;BME280;11334;36.986;-121.936;2023-07-02T07:10:24;100782.16;;;18.01;88.72
22333;BME280;11334;36.986;-121.936;2023-07-02T07:12:51;100779.44;;;17.88;89.41
22333;BME280;11334;36.986;-121.936;2023-07-02T07:15:17;100780.28;;;17.95;89.10
22333;BME280;11334;36.986;-121.936;2023-07-02T07:17:43;100775.34;;;17.92;89.36
22333;BME280;11334;36.986;-121.936;2023-07-02T07:20:10;100777.19;;;17.85;89.32
22333;BME280;11334;36.986;-121.936;2023-07-02T07:22:36;100780.47;;;17.87;88.89
22333;BME280;11334;36.986;-121.936;2023-07-02T07:25:02;100776.75;;;17.88;88.66
22333;BME280;11334;36.986;-121.936;2023-07-02T07:27:29;100776.34;;;17.84;89.18
22333;BME280;11334;36.986;-121.936;2023-07-02T07:29:55;100779.84;;;17.85;89.77
22333;BME280;11334;36.986;-121.936;2023-07-02T07:32:21;100776.53;;;17.83;89.57
22333;BME280;11334;36.986;-121.936;2023-07-02T07:34:47;100773.63;;;17.78;89.54
22333;BME280;11334;36.986;-121.936;2023-07-02T07:37:13;100765.41;;;17.79;89.35
22333;BME280;11334;36.986;-121.936;2023-07-02T07:39:39;100762.50;;;17.81;89.27
22333;BME280;11334;36.986;-121.936;2023-07-02T07:42:06;100764.19;;;17.82;88.95
22333;BME280;11334;36.986;-121.936;2023-07-02T07:44:32;100770.78;;;17.79;89.32
22333;BME280;11334;36.986;-121.936;2023-07-02T07:46:58;100766.88;;;17.82;89.73
22333;BME280;11334;36.986;-121.936;2023-07-02T07:49:25;100763.56;;;17.80;90.17
22333;BME280;11334;36.986;-121.936;2023-07-02T07:51:51;100763.72;;;17.66;90.71
22333;BME280;11334;36.986;-121.936;2023-07-02T07:54:17;100747.19;;;17.49;92.17
22333;BME280;11334;36.986;-121.936;2023-07-02T07:56:44;100748.44;;;17.60;91.07
22333;BME280;11334;36.986;-121.936;2023-07-02T07:59:10;100741.00;;;17.55;90.93
22333;BME280;11334;36.986;-121.936;2023-07-02T08:01:38;100745.13;;;17.58;90.98
22333;BME280;11334;36.986;-121.936;2023-07-02T08:04:05;100740.19;;;17.55;91.28
22333;BME280;11334;36.986;-121.936;2023-07-02T08:06:31;100735.22;;;17.58;91.25
22333;BME280;11334;36.986;-121.936;2023-07-02T08:08:57;100730.09;;;17.57;91.42
22333;BME280;11334;36.986;-121.936;2023-07-02T08:11:23;100727.56;;;17.49;91.51
22333;BME280;11334;36.986;-121.936;2023-07-02T08:13:50;100718.94;;;17.47;91.71
22333;BME280;11334;36.986;-121.936;2023-07-02T08:16:16;100730.06;;;17.50;91.41
22333;BME280;11334;36.986;-121.936;2023-07-02T08:18:42;100735.00;;;17.53;91.38
22333;BME280;11334;36.986;-121.936;2023-07-02T08:21:08;100730.66;;;17.46;92.64
22333;BME280;11334;36.986;-121.936;2023-07-02T08:23:35;100731.25;;;17.41;93.03
22333;BME280;11334;36.986;-121.936;2023-07-02T08:26:01;100729.41;;;17.42;92.56
22333;BME280;11334;36.986;-121.936;2023-07-02T08:28:28;100726.84;;;17.21;93.81
22333;BME280;11334;36.986;-121.936;2023-07-02T08:30:55;100731.84;;;17.31;93.26
22333;BME280;11334;36.986;-121.936;2023-07-02T08:33:24;100736.38;;;17.37;93.42
22333;BME280;11334;36.986;-121.936;2023-07-02T08:35:50;100729.75;;;17.26;93.93
22333;BME280;11334;36.986;-121.936;2023-07-02T08:38:16;100731.78;;;17.24;94.40
22333;BME280;11334;36.986;-121.936;2023-07-02T08:40:43;100737.56;;;17.21;94.96
22333;BME280;11334;36.986;-121.936;2023-07-02T08:43:09;100742.72;;;17.29;93.96
22333;BME280;11334;36.986;-121.936;2023-07-02T08:45:36;100741.50;;;17.25;94.14
22333;BME280;11334;36.986;-121.936;2023-07-02T08:48:02;100733.22;;;17.20;94.38
22333;BME280;11334;36.986;-121.936;2023-07-02T08:50:29;100725.22;;;17.27;93.44
22333;BME280;11334;36.986;-121.936;2023-07-02T08:52:55;100734.28;;;17.26;93.22
22333;BME280;11334;36.986;-121.936;2023-07-02T08:55:21;100735.09;;;17.20;93.81
22333;BME280;11334;36.986;-121.936;2023-07-02T08:57:55;100724.16;;;17.15;94.51
22333;BME280;11334;36.986;-121.936;2023-07-02T09:00:23;100725.78;;;17.16;94.71
22333;BME280;11334;36.986;-121.936;2023-07-02T09:02:49;100722.28;;;17.15;93.93
22333;BME280;11334;36.986;-121.936;2023-07-02T09:05:15;100725.72;;;17.09;95.28
22333;BME280;11334;36.986;-121.936;2023-07-02T09:07:45;100715.63;;;17.05;95.78
22333;BME280;11334;36.986;-121.936;2023-07-02T09:10:12;100721.34;;;17.02;95.40
22333;BME280;11334;36.986;-121.936;2023-07-02T09:12:38;100732.94;;;17.09;95.58
22333;BME280;11334;36.986;-121.936;2023-07-02T09:15:05;100735.69;;;17.15;95.41
22333;BME280;11334;36.986;-121.936;2023-07-02T09:17:36;100732.94;;;17.09;96.46
22333;BME280;11334;36.986;-121.936;2023-07-02T09:20:05;100739.72;;;17.05;96.76
22333;BME280;11334;36.986;-121.936;2023-07-02T09:22:34;100737.66;;;17.07;95.81
22333;BME280;11334;36.986;-121.936;2023-07-02T09:25:02;100741.13;;;17.01;95.80
22333;BME280;11334;36.986;-121.936;2023-07-02T09:27:41;100743.00;;;17.01;95.38
22333;BME280;11334;36.986;-121.936;2023-07-02T09:30:12;100752.41;;;16.97;95.42
22333;BME280;11334;36.986;-121.936;2023-07-02T09:32:40;100765.00;;;16.96;95.65
22333;BME280;11334;36.986;-121.936;2023-07-02T09:35:06;100767.09;;;17.01;95.22
22333;BME280;11334;36.986;-121.936;2023-07-02T09:37:32;100768.47;;;16.97;95.42
22333;BME280;11334;36.986;-121.936;2023-07-02T09:39:59;100756.56;;;16.99;95.39
22333;BME280;11334;36.986;-121.936;2023-07-02T09:42:28;100754.28;;;16.96;95.82
22333;BME280;11334;36.986;-121.936;2023-07-02T09:44:58;100754.56;;;17.08;95.86
22333;BME280;11334;36.986;-121.936;2023-07-02T09:47:26;100756.84;;;17.10;95.89
22333;BME280;11334;36.986;-121.936;2023-07-02T09:50:04;100742.00;;;17.08;97.09
22333;BME280;11334;36.986;-121.936;2023-07-02T09:52:34;100749.41;;;17.06;97.59
22333;BME280;11334;36.986;-121.936;2023-07-02T09:55:01;100751.75;;;17.15;99.24
22333;BME280;11334;36.986;-121.936;2023-07-02T09:57:29;100741.50;;;17.25;99.23
22333;BME280;11334;36.986;-121.936;2023-07-02T09:59:59;100725.38;;;17.19;100.00
22333;BME280;11334;36.986;-121.936;2023-07-02T10:02:26;100728.88;;;17.19;100.00
22333;BME280;11334;36.986;-121.936;2023-07-02T10:04:52;100710.53;;;17.16;100.00
22333;BME280;11334;36.986;-121.936;2023-07-02T10:07:38;100724.84;;;17.30;100.00
22333;BME280;11334;36.986;-121.936;2023-07-02T10:10:05;100725.28;;;17.40;100.00
22333;BME280;11334;36.986;-121.936;2023-07-02T10:12:32;100714.34;;;17.41;100.00
22333;BME280;11334;36.986;-121.936;2023-07-02T10:14:59;100722.84;;;17.51;100.00
22333;BME280;11334;36.986;-121.936;2023-07-02T10:17:32;100716.03;;;17.48;100.00
22333;BME280;11334;36.986;-121.936;2023-07-02T10:20:06;100723.28;;;17.54;100.00
22333;BME280;11334;36.986;-121.936;2023-07-02T10:22:43;100717.94;;;17.54;100.00
22333;BME280;11334;36.986;-121.936;2023-07-02T10:25:10;100722.06;;;17.57;100.00
22333;BME280;11334;36.986;-121.936;2023-07-02T10:27:41;100729.06;;;17.58;100.00
22333;BME280;11334;36.986;-121.936;2023-07-02T10:30:09;100732.78;;;17.57;100.00
22333;BME280;11334;36.986;-121.936;2023-07-02T10:32:37;100742.44;;;17.58;100.00
22333;BME280;11334;36.986;-121.936;2023-07-02T10:35:16;100742.63;;;17.56;100.00
22333;BME280;11334;36.986;-121.936;2023-07-02T10:37:43;100751.09;;;17.53;100.00
22333;BME280;11334;36.986;-121.936;2023-07-02T10:40:10;100745.53;;;17.55;100.00
22333;BME280;11334;36.986;-121.936;2023-07-02T10:42:50;100745.94;;;17.58;100.00
22333;BME280;11334;36.986;-121.936;2023-07-02T10:45:17;100731.91;;;17.56;100.00
22333;BME280;11334;36.986;-121.936;2023-07-02T10:47:44;100735.66;;;17.55;100.00
22333;BME280;11334;36.986;-121.936;2023-07-02T10:50:21;100737.06;;;17.51;100.00
22333;BME280;11334;36.986;-121.936;2023-07-02T10:52:49;100717.88;;;17.48;100.00
22333;BME280;11334;36.986;-121.936;2023-07-02T10:55:19;100724.28;;;17.53;100.00
22333;BME280;11334;36.986;-121.936;2023-07-02T10:57:46;100721.38;;;17.48;100.00
22333;BME280;11334;36.986;-121.936;2023-07-02T11:00:13;100719.31;;;17.44;100.00
22333;BME280;11334;36.986;-121.936;2023-07-02T11:02:40;100721.97;;;17.44;100.00
22333;BME280;11334;36.986;-121.936;2023-07-02T11:05:07;100727.56;;;17.49;100.00
22333;BME280;11334;36.986;-121.936;2023-07-02T11:07:39;100715.41;;;17.46;100.00
22333;BME280;11334;36.986;-121.936;2023-07-02T11:10:06;100724.25;;;17.40;100.00
22333;BME280;11334;36.986;-121.936;2023-07-02T11:12:33;100728.56;;;17.41;100.00
22333;BME280;11334;36.986;-121.936;2023-07-02T11:15:13;100733.91;;;17.35;100.00
22333;BME280;11334;36.986;-121.936;2023-07-02T11:17:40;100725.84;;;17.22;100.00
22333;BME280;11334;36.986;-121.936;2023-07-02T11:20:08;100734.69;;;17.23;100.00
22333;BME280;11334;36.986;-121.936;2023-07-02T11:22:36;100715.91;;;17.16;100.00
22333;BME280;11334;36.986;-121.936;2023-07-02T11:25:12;100716.72;;;17.17;100.00
22333;BME280;11334;36.986;-121.936;2023-07-02T11:27:40;100733.03;;;17.22;100.00
22333;BME280;11334;36.986;-121.936;2023-07-02T11:30:07;100736.34;;;17.24;100.00
22333;BME280;11334;36.986;-121.936;2023-07-02T11:32:51;100742.72;;;17.23;100.00
22333;BME280;11334;36.986;-121.936;2023-07-02T11:35:17;100746.13;;;17.10;100.00
22333;BME280;11334;36.986;-121.936;2023-07-02T11:37:44;100742.00;;;17.08;100.00
22333;BME280;11334;36.986;-121.936;2023-07-02T11:40:12;100755.66;;;17.13;100.00
22333;BME280;11334;36.986;-121.936;2023-07-02T11:42:39;100756.28;;;17.15;100.00
22333;BME280;11334;36.986;-121.936;2023-07-02T11:45:06;100751.50;;;17.10;100.00
22333;BME280;11334;36.986;-121.936;2023-07-02T11:47:33;100759.56;;;17.17;100.00
22333;BME280;11334;36.986;-121.936;2023-07-02T11:49:59;100763.50;;;17.21;100.00
22333;BME280;11334;36.986;-121.936;2023-07-02T11:52:25;100763.50;;;17.21;100.00
22333;BME280;11334;36.986;-121.936;2023-07-02T11:54:52;100762.72;;;17.27;100.00
22333;BME280;11334;36.986;-121.936;2023-07-02T11:57:18;100767.28;;;17.33;100.00
22333;BME280;11334;36.986;-121.936;2023-07-02T11:59:45;100770.59;;;17.35;100.00
22333;BME280;11334;36.986;-121.936;2023-07-02T12:02:11;100770.13;;;17.25;100.00
22333;BME280;11334;36.986;-121.936;2023-07-02T12:04:38;100772.00;;;17.31;100.00
22333;BME280;11334;36.986;-121.936;2023-07-02T12:07:04;100783.53;;;17.25;100.00
22333;BME280;11334;36.986;-121.936;2023-07-02T12:09:31;100780.47;;;17.34;100.00
22333;BME280;11334;36.986;-121.936;2023-07-02T12:11:57;100777.19;;;17.39;100.00
22333;BME280;11334;36.986;-121.936;2023-07-02T12:14:23;100769.97;;;17.39;100.00
22333;BME280;11334;36.986;-121.936;2023-07-02T12:16:49;100773.09;;;17.42;100.00
22333;BME280;11334;36.986;-121.936;2023-07-02T12:19:15;100761.34;;;17.43;100.00
22333;BME280;11334;36.986;-121.936;2023-07-02T12:21:42;100765.84;;;17.37;100.00